Time;durP1;ratioP1;P1;durP2;ratioP2;P2;SDS_P1;SDS_P2;PMS_P1;PMS_P2;Temp;Humidity;BMP_temperature;BMP_pressure;BME280_temperature;BME280_humidity;BME280_pressure;Samples;Min_cycle;Max_cycle;Signal;HPM_P1;HPM_P2
2021/08/12 00:02:01;;;;;;;11.90;10.68;;;;;;;25.01;50.32;95792.94;4965293;28;20186;-73
2021/08/12 00:04:27;;;;;;;15.13;11.20;;;;;;;25.05;49.91;95788.31;4950665;28;20063;-72
2021/08/12 00:06:52;;;;;;;18.15;13.15;;;;;;;25.04;49.85;95786.75;4952089;29;20023;-72
2021/08/12 00:09:18;;;;;;;12.85;11.85;;;;;;;25.06;49.79;95789.88;4950505;28;20042;-72
2021/08/12 00:11:43;;;;;;;11.60;10.60;;;;;;;25.07;49.74;95802.34;4950614;28;20036;-73
2021/08/12 00:14:10;;;;;;;11.40;10.40;;;;;;;25.04;49.92;95797.66;4950324;28;20091;-73
2021/08/12 00:16:35;;;;;;;13.27;11.95;;;;;;;25.04;49.88;95792.19;4950270;28;20050;-72
2021/08/12 00:19:01;;;;;;;11.38;10.35;;;;;;;24.97;50.05;95797.59;4967669;28;20035;-73
2021/08/12 00:21:26;;;;;;;13.10;12.00;;;;;;;24.78;50.69;95791.28;4950863;28;20397;-72
2021/08/12 00:23:53;;;;;;;13.95;12.50;;;;;;;24.85;50.33;95796.75;4951000;28;20031;-73
2021/08/12 00:26:19;;;;;;;14.95;11.98;;;;;;;24.79;50.50;95792.06;4957669;28;20078;-72
2021/08/12 00:28:44;;;;;;;13.63;12.45;;;;;;;24.74;51.04;95797.84;4954664;28;20498;-72
2021/08/12 00:31:10;;;;;;;12.68;11.57;;;;;;;24.64;50.93;95781.09;4954471;28;20065;-72
2021/08/12 00:33:36;;;;;;;12.18;10.98;;;;;;;24.67;51.04;95795.06;4956460;28;20625;-72
2021/08/12 00:36:02;;;;;;;14.02;12.55;;;;;;;24.76;51.07;95812.63;4954198;28;20059;-74
2021/08/12 00:38:28;;;;;;;13.73;12.05;;;;;;;24.72;50.43;95802.88;4954309;28;20031;-73
2021/08/12 00:40:53;;;;;;;20.92;12.98;;;;;;;24.67;50.58;95795.88;4952878;28;20070;-72
2021/08/12 00:43:19;;;;;;;12.50;11.27;;;;;;;24.74;50.52;95801.34;4978346;28;20122;-72
2021/08/12 00:45:45;;;;;;;16.27;11.50;;;;;;;24.72;50.33;95808.31;4975083;28;20397;-72
2021/08/12 00:48:11;;;;;;;15.02;12.63;;;;;;;24.62;50.48;95788.06;4973545;28;20109;-72
2021/08/12 00:50:43;;;;;;;15.45;12.88;;;;;;;24.71;50.55;95801.31;4973279;28;20038;-72
2021/08/12 00:53:09;;;;;;;13.05;11.23;;;;;;;24.59;50.35;95797.75;4973709;28;20081;-72
2021/08/12 00:55:36;;;;;;;12.85;11.27;;;;;;;24.64;50.45;95808.28;4963080;28;20043;-73
2021/08/12 00:58:05;;;;;;;14.38;11.52;;;;;;;24.55;50.50;95791.50;4955510;28;20110;-73
2021/08/12 01:00:33;;;;;;;11.80;10.32;;;;;;;24.50;50.73;95796.53;4954170;28;20082;-72
2021/08/12 01:02:58;;;;;;;12.30;11.00;;;;;;;24.45;50.68;95778.63;4954260;28;20055;-75
2021/08/12 01:05:24;;;;;;;11.35;10.23;;;;;;;24.54;50.71;95797.34;4953954;28;20522;-73
2021/08/12 01:08:06;;;;;;;13.50;9.95;;;;;;;24.42;50.29;95789.47;4953099;28;20052;-73
2021/08/12 01:10:42;;;;;;;12.82;11.73;;;;;;;24.51;50.12;95808.94;4953275;28;20039;-72
2021/08/12 01:13:14;;;;;;;10.88;9.75;;;;;;;24.48;50.53;95813.22;4953509;28;20035;-72
2021/08/12 01:15:47;;;;;;;12.70;11.13;;;;;;;24.40;50.48;95803.44;4955152;29;20078;-72
2021/08/12 01:21:06;;;;;;;10.85;9.75;;;;;;;24.30;50.32;95814.97;4989068;28;20062;-65
2021/08/12 01:23:33;;;;;;;11.45;10.43;;;;;;;24.21;50.67;95800.91;4991466;28;20049;-64
2021/08/12 01:26:00;;;;;;;12.50;11.40;;;;;;;24.28;50.22;95812.66;4990161;28;20234;-64
2021/08/12 01:28:30;;;;;;;12.90;11.57;;;;;;;24.14;50.43;95796.22;4990773;28;21671;-64
2021/08/12 01:31:14;;;;;;;13.45;12.07;;;;;;;24.19;50.19;95806.72;4993647;28;20053;-64
2021/08/12 01:33:58;;;;;;;13.52;12.23;;;;;;;24.16;50.47;95812.94;4991434;28;20136;-64
2021/08/12 01:36:25;;;;;;;15.68;11.75;;;;;;;23.90;50.31;95781.22;4990462;28;20050;-64
2021/08/12 01:38:53;;;;;;;16.60;12.93;;;;;;;22.89;50.31;95626.63;4991060;28;20038;-65
2021/08/12 01:41:21;;;;;;;12.73;11.52;;;;;;;22.90;50.62;95651.81;4990786;28;20100;-64
2021/08/12 01:43:47;;;;;;;14.25;12.90;;;;;;;23.70;50.65;95766.28;4991137;28;20034;-64
2021/08/12 01:46:13;;;;;;;14.10;12.77;;;;;;;22.89;50.57;95645.63;4990433;28;20029;-65
2021/08/12 01:48:39;;;;;;;14.27;12.43;;;;;;;23.64;50.90;95774.00;4993259;28;20408;-64
2021/08/12 01:51:05;;;;;;;14.05;12.77;;;;;;;23.47;50.95;95769.13;4990982;28;20046;-65
2021/08/12 01:53:32;;;;;;;12.35;11.05;;;;;;;23.31;50.79;95737.56;4991209;28;20101;-65
2021/08/12 01:55:59;;;;;;;13.13;11.63;;;;;;;23.75;50.75;95807.50;4989782;28;20058;-64
2021/08/12 01:58:26;;;;;;;16.50;12.60;;;;;;;23.58;50.91;95773.53;4990796;28;20034;-65
2021/08/12 02:00:54;;;;;;;13.73;12.55;;;;;;;23.70;51.26;95788.81;4992888;28;20358;-65
2021/08/12 02:03:21;;;;;;;13.18;11.90;;;;;;;23.67;51.15;95795.00;4990440;28;20030;-64
2021/08/12 02:05:49;;;;;;;19.63;13.20;;;;;;;23.41;51.26;95765.19;4990028;28;20042;-64
2021/08/12 02:08:19;;;;;;;13.63;10.77;;;;;;;23.30;51.10;95749.56;4990786;28;20042;-64
2021/08/12 02:10:45;;;;;;;18.33;13.43;;;;;;;23.40;51.03;95767.13;4990185;28;20097;-64
2021/08/12 02:13:11;;;;;;;14.85;12.90;;;;;;;23.71;51.20;95822.97;4990436;28;20026;-64
2021/08/12 02:15:37;;;;;;;14.27;13.00;;;;;;;23.28;50.91;95762.72;4992550;28;20063;-64
2021/08/12 02:18:04;;;;;;;12.75;11.55;;;;;;;23.38;51.20;95774.84;4990498;28;20042;-64
2021/08/12 02:20:30;;;;;;;15.02;13.63;;;;;;;23.33;51.19;95756.19;4990197;28;20042;-64
2021/08/12 02:23:17;;;;;;;13.75;12.35;;;;;;;23.62;51.29;95800.72;4989094;28;20141;-65
2021/08/12 02:25:49;;;;;;;14.85;13.43;;;;;;;23.56;51.34;95788.63;4989146;28;20038;-64
2021/08/12 02:28:16;;;;;;;13.02;11.77;;;;;;;23.28;51.68;95742.94;4989997;28;20027;-64
2021/08/12 02:30:43;;;;;;;15.32;13.93;;;;;;;23.32;51.45;95752.69;4992367;28;20562;-64
2021/08/12 02:33:12;;;;;;;15.05;13.60;;;;;;;23.43;51.73;95773.75;4989879;28;20042;-64
2021/08/12 02:35:38;;;;;;;17.42;14.63;;;;;;;23.35;51.47;95770.97;4972351;28;20161;-64
2021/08/12 02:38:06;;;;;;;16.75;15.25;;;;;;;23.49;51.75;95792.06;4972680;28;20082;-64
2021/08/12 02:40:31;;;;;;;14.18;12.88;;;;;;;23.17;51.80;95755.63;4988797;28;20042;-64
2021/08/12 02:42:59;;;;;;;16.92;14.70;;;;;;;23.51;51.66;95786.25;4992014;28;20135;-64
2021/08/12 02:45:26;;;;;;;15.00;12.77;;;;;;;22.89;51.52;95708.00;4989789;28;20045;-64
2021/08/12 02:47:55;;;;;;;14.25;13.05;;;;;;;23.12;51.47;95735.00;4988575;28;20043;-64
2021/08/12 02:50:22;;;;;;;14.10;12.60;;;;;;;23.12;51.64;95735.00;4989528;28;20034;-65
2021/08/12 02:52:48;;;;;;;16.65;14.40;;;;;;;23.50;51.55;95798.28;4989505;28;20053;-64
2021/08/12 02:55:15;;;;;;;14.77;13.27;;;;;;;22.52;51.71;95659.88;4971673;28;20069;-64
2021/08/12 02:57:40;;;;;;;14.55;13.35;;;;;;;23.51;51.20;95795.19;4991381;28;20653;-64
2021/08/12 03:00:08;;;;;;;15.23;13.82;;;;;;;23.52;51.27;95787.81;4989802;28;20044;-64
2021/08/12 03:02:35;;;;;;;24.38;15.10;;;;;;;23.47;51.61;95788.91;4989106;28;20443;-64
2021/08/12 03:05:01;;;;;;;17.00;14.77;;;;;;;23.28;51.63;95776.28;4990043;28;20042;-64
2021/08/12 03:07:27;;;;;;;15.95;14.30;;;;;;;23.47;51.71;95788.16;4987648;28;20065;-64
2021/08/12 03:09:54;;;;;;;12.70;11.65;;;;;;;22.96;51.82;95739.84;4991587;28;20520;-64
2021/08/12 03:12:21;;;;;;;13.50;12.30;;;;;;;22.45;52.18;95699.66;4988722;28;20054;-65
2021/08/12 03:14:49;;;;;;;12.75;11.57;;;;;;;22.89;53.14;95796.75;4989401;28;20038;-65
2021/08/12 03:17:16;;;;;;;12.10;10.93;;;;;;;22.51;52.40;95714.44;4988906;28;20046;-64
2021/08/12 03:19:43;;;;;;;14.73;12.65;;;;;;;22.94;51.98;95774.72;4971650;28;20086;-64
2021/08/12 03:22:12;;;;;;;14.68;13.25;;;;;;;22.59;51.83;95689.00;4971637;28;20088;-64
2021/08/12 03:24:42;;;;;;;15.18;13.10;;;;;;;22.74;51.66;95707.00;4991732;28;20026;-64
2021/08/12 03:27:13;;;;;;;15.45;13.80;;;;;;;22.95;51.55;95743.72;4987903;28;20042;-64
2021/08/12 03:29:40;;;;;;;17.63;13.85;;;;;;;23.06;51.22;95771.78;4988507;28;20120;-64
2021/08/12 03:32:07;;;;;;;15.75;14.27;;;;;;;23.20;51.61;95798.31;4989125;28;20038;-64
2021/08/12 03:34:33;;;;;;;17.02;13.30;;;;;;;23.16;51.75;95790.13;4989267;28;20409;-64
2021/08/12 03:36:58;;;;;;;16.75;15.02;;;;;;;23.27;51.61;95811.94;4990999;28;20027;-64
2021/08/12 03:39:24;;;;;;;16.35;14.75;;;;;;;22.49;51.45;95689.63;4988622;28;20078;-64
2021/08/12 03:41:50;;;;;;;14.85;13.45;;;;;;;23.07;52.11;95789.59;4988243;28;20599;-65
2021/08/12 03:44:16;;;;;;;15.90;14.20;;;;;;;23.10;52.05;95821.44;4988346;28;20042;-64
2021/08/12 03:46:42;;;;;;;16.95;15.00;;;;;;;22.63;52.05;95733.22;4988832;28;20058;-64
2021/08/12 03:49:07;;;;;;;17.50;15.90;;;;;;;22.78;51.78;95747.75;4988653;28;20551;-64
2021/08/12 03:51:33;;;;;;;18.63;15.48;;;;;;;23.08;51.79;95783.84;4991050;28;20117;-65
2021/08/12 03:53:58;;;;;;;17.55;15.80;;;;;;;23.11;51.85;95814.84;4988986;28;20046;-65
2021/08/12 03:56:24;;;;;;;18.17;16.35;;;;;;;22.77;52.02;95748.88;4988063;28;20035;-65
2021/08/12 03:58:50;;;;;;;16.73;15.20;;;;;;;23.05;51.95;95786.50;4988958;28;20074;-65
2021/08/12 04:01:15;;;;;;;18.67;16.85;;;;;;;22.82;52.08;95751.28;4988159;28;20050;-64
2021/08/12 04:03:41;;;;;;;19.17;16.40;;;;;;;22.72;51.87;95739.13;4973772;28;20484;-65
2021/08/12 04:06:06;;;;;;;15.57;14.18;;;;;;;22.77;52.27;95733.38;4970726;28;20042;-64
2021/08/12 04:08:32;;;;;;;15.13;13.82;;;;;;;22.56;52.44;95700.56;4988533;28;20038;-64
2021/08/12 04:10:57;;;;;;;15.75;14.32;;;;;;;21.98;51.96;95627.75;4987977;28;20050;-64
2021/08/12 04:13:23;;;;;;;14.63;12.98;;;;;;;22.87;52.02;95748.22;4989327;28;20026;-65
2021/08/12 04:15:48;;;;;;;13.38;12.25;;;;;;;22.94;52.03;95747.59;4990561;28;20087;-65
2021/08/12 04:18:13;;;;;;;16.73;14.60;;;;;;;22.64;52.03;95713.09;4988901;28;20030;-64
2021/08/12 04:20:39;;;;;;;18.20;15.63;;;;;;;23.40;51.77;95812.50;4988498;28;20069;-64
2021/08/12 04:23:04;;;;;;;14.07;12.77;;;;;;;23.35;51.69;95787.25;4988650;28;20515;-65
2021/08/12 04:25:30;;;;;;;17.48;14.98;;;;;;;23.04;51.79;95744.22;4988026;28;20408;-64
2021/08/12 04:27:55;;;;;;;15.85;14.32;;;;;;;23.29;51.54;95786.03;4990375;28;20092;-65
2021/08/12 04:30:21;;;;;;;19.85;14.07;;;;;;;23.28;51.50;95768.16;4988707;28;20046;-65
2021/08/12 04:32:47;;;;;;;16.08;14.00;;;;;;;23.43;51.52;95776.47;4988672;28;20096;-64
2021/08/12 04:35:12;;;;;;;15.23;13.27;;;;;;;23.32;51.18;95758.13;4988387;28;20046;-65
2021/08/12 04:37:44;;;;;;;13.68;12.35;;;;;;;23.65;51.47;95800.03;4988108;28;20164;-65
2021/08/12 04:40:12;;;;;;;11.02;10.18;;;;;;;23.66;51.44;95784.50;4988331;28;20388;-64
2021/08/12 04:42:37;;;;;;;12.60;11.18;;;;;;;23.22;50.95;95698.28;4990295;28;20354;-64
2021/08/12 04:45:03;;;;;;;11.52;10.52;;;;;;;23.81;50.99;95773.41;4988449;28;20113;-65
2021/08/12 04:47:29;;;;;;;11.10;10.02;;;;;;;23.33;50.71;95680.19;4970445;28;20061;-64
2021/08/12 04:49:54;;;;;;;11.27;10.38;;;;;;;24.15;50.49;95781.47;4988077;28;20096;-64
2021/08/12 04:52:20;;;;;;;10.40;9.20;;;;;;;23.92;50.10;95721.88;4988753;28;20338;-68
2021/08/12 04:54:45;;;;;;;9.75;8.95;;;;;;;24.66;49.87;95810.63;4990824;28;20026;-70
2021/08/12 04:57:11;;;;;;;9.05;8.23;;;;;;;24.63;49.30;95778.75;4982854;28;20140;-69
2021/08/12 04:59:36;;;;;;;9.75;8.93;;;;;;;25.00;48.82;95810.44;4988498;28;20489;-64
2021/08/12 05:02:01;;;;;;;9.90;9.00;;;;;;;25.02;48.82;95795.28;4983359;28;20045;-68
2021/08/12 05:04:27;;;;;;;9.85;8.65;;;;;;;25.14;48.76;95796.94;4988439;28;20042;-66
2021/08/12 05:06:52;;;;;;;10.43;9.30;;;;;;;25.44;48.19;95806.78;4988255;28;20027;-65
2021/08/12 05:09:18;;;;;;;13.13;9.38;;;;;;;25.53;48.01;95813.41;4987161;28;20049;-65
2021/08/12 05:11:43;;;;;;;9.85;8.95;;;;;;;25.66;48.08;95805.69;4989835;28;20120;-66
2021/08/12 05:14:08;;;;;;;10.07;8.77;;;;;;;25.77;47.57;95795.63;4992030;28;20093;-66
2021/08/12 05:16:34;;;;;;;9.40;8.65;;;;;;;25.89;47.31;95806.16;4991293;28;20093;-66
2021/08/12 05:18:59;;;;;;;9.95;9.15;;;;;;;25.90;47.12;95796.81;4993609;28;20058;-66
2021/08/12 05:21:24;;;;;;;9.48;8.57;;;;;;;26.10;47.10;95805.44;4991632;28;20137;-66
2021/08/12 05:23:50;;;;;;;12.30;10.95;;;;;;;26.11;47.00;95809.72;4991853;28;20038;-66
2021/08/12 05:26:15;;;;;;;10.48;9.30;;;;;;;26.19;46.96;95805.81;4990634;28;20034;-65
2021/08/12 05:28:41;;;;;;;12.30;9.93;;;;;;;26.23;46.72;95814.00;4973869;28;20038;-67
2021/08/12 05:31:06;;;;;;;10.20;9.18;;;;;;;26.13;46.67;95790.22;4991641;28;20030;-69
2021/08/12 05:33:34;;;;;;;11.10;9.65;;;;;;;26.30;46.74;95815.94;4993708;28;20026;-64
2021/08/12 05:35:59;;;;;;;9.82;9.05;;;;;;;26.20;46.76;95787.50;4990926;28;20053;-69
2021/08/12 05:38:25;;;;;;;11.27;9.27;;;;;;;26.39;46.86;95811.66;4991465;28;20481;-69
2021/08/12 05:40:50;;;;;;;11.70;9.15;;;;;;;26.25;47.16;95781.66;4991328;28;20582;-69
2021/08/12 05:43:15;;;;;;;10.75;9.73;;;;;;;26.28;47.10;95780.88;4973591;28;20117;-70
2021/08/12 05:45:41;;;;;;;10.50;9.50;;;;;;;26.44;46.83;95794.16;4993136;28;20022;-82
2021/08/12 05:48:06;;;;;;;12.77;9.57;;;;;;;26.55;47.20;95799.59;4974267;28;20076;-69
2021/08/12 05:50:32;;;;;;;11.95;9.85;;;;;;;26.72;46.95;95809.72;4991938;28;20062;-69
2021/08/12 05:52:57;;;;;;;14.40;10.38;;;;;;;26.75;47.34;95808.94;4991293;28;20125;-68
2021/08/12 05:55:23;;;;;;;11.02;9.93;;;;;;;26.80;47.37;95797.63;4991379;28;20035;-72
2021/08/12 05:57:48;;;;;;;11.98;10.70;;;;;;;26.90;47.16;95804.22;4992327;28;20536;-73
2021/08/12 06:00:14;;;;;;;11.73;10.23;;;;;;;26.98;46.88;95794.09;4991066;28;20073;-70
2021/08/12 06:02:39;;;;;;;10.70;9.68;;;;;;;27.20;46.85;95817.44;4991015;28;20485;-70
2021/08/12 06:05:05;;;;;;;11.20;10.05;;;;;;;27.19;46.65;95802.22;4990829;28;20065;-71
2021/08/12 06:07:30;;;;;;;11.57;10.68;;;;;;;27.41;46.83;95824.78;4990464;28;20041;-70
2021/08/12 06:09:55;;;;;;;15.40;10.68;;;;;;;27.43;46.29;95809.53;4992816;28;20472;-70
2021/08/12 06:12:21;;;;;;;15.07;10.68;;;;;;;27.61;46.64;95830.56;4989806;28;20128;-67
2021/08/12 06:14:46;;;;;;;11.20;9.98;;;;;;;27.51;46.35;95801.31;4990787;28;20096;-68
2021/08/12 06:17:11;;;;;;;10.77;9.77;;;;;;;27.66;46.17;95817.25;4990149;28;20613;-67
2021/08/12 06:19:37;;;;;;;11.40;10.30;;;;;;;27.78;45.55;95815.25;4990441;28;20109;-66
2021/08/12 06:22:02;;;;;;;16.33;10.05;;;;;;;27.84;45.90;95822.63;4974502;28;20041;-66
2021/08/12 06:24:28;;;;;;;10.32;9.20;;;;;;;27.99;45.76;95829.56;4972407;28;20035;-66
2021/08/12 06:26:53;;;;;;;10.90;9.80;;;;;;;27.93;44.97;95820.25;4989409;28;20354;-67
2021/08/12 06:29:19;;;;;;;10.70;9.70;;;;;;;28.06;45.14;95828.78;4972872;28;20038;-66
2021/08/12 06:31:44;;;;;;;11.93;9.48;;;;;;;28.15;44.71;95822.84;4972921;28;20416;-67
2021/08/12 06:34:10;;;;;;;10.27;9.27;;;;;;;28.15;44.49;95820.09;4973006;28;20034;-66
2021/08/12 06:36:35;;;;;;;11.38;9.57;;;;;;;28.28;44.52;95815.72;4991691;28;20093;-66
2021/08/12 06:39:01;;;;;;;9.38;8.57;;;;;;;28.40;44.49;95826.19;4990041;28;20404;-67
2021/08/12 06:41:27;;;;;;;9.98;9.18;;;;;;;28.40;44.23;95809.78;4989369;28;20085;-66
2021/08/12 06:43:53;;;;;;;9.93;8.85;;;;;;;28.58;43.90;95830.78;4990210;28;20054;-67
2021/08/12 06:46:18;;;;;;;10.10;9.10;;;;;;;28.70;44.03;95839.25;4990100;28;20126;-70
2021/08/12 06:48:43;;;;;;;9.80;8.90;;;;;;;28.72;43.74;95819.69;4991768;28;20026;-67
2021/08/12 06:51:10;;;;;;;8.70;7.75;;;;;;;28.95;43.21;95839.06;4989946;28;20099;-67
2021/08/12 06:53:35;;;;;;;9.65;8.60;;;;;;;29.12;42.60;95842.78;4990107;28;20114;-67
2021/08/12 06:56:02;;;;;;;9.32;8.38;;;;;;;29.33;41.75;95846.47;4989464;28;20561;-67
2021/08/12 06:58:27;;;;;;;12.35;9.30;;;;;;;29.52;42.08;95840.38;4989082;28;20528;-67
2021/08/12 07:00:53;;;;;;;16.75;11.50;;;;;;;29.75;41.83;95845.25;4991677;28;20066;-66
2021/08/12 07:03:18;;;;;;;21.77;11.80;;;;;;;29.88;41.07;95832.50;4972359;28;20041;-66
2021/08/12 07:05:43;;;;;;;15.05;10.57;;;;;;;30.19;40.89;95841.50;4989323;28;20069;-66
2021/08/12 07:08:09;;;;;;;13.07;9.27;;;;;;;30.39;40.28;95846.31;4989825;28;20515;-67
2021/08/12 07:10:35;;;;;;;40.17;14.73;;;;;;;30.54;40.28;95845.66;4989751;28;20074;-67
2021/08/12 07:13:00;;;;;;;22.42;12.65;;;;;;;30.63;40.18;95838.88;4973471;28;20026;-67
2021/08/12 07:15:26;;;;;;;37.38;14.45;;;;;;;30.93;39.47;95851.75;4971995;28;20467;-67
2021/08/12 07:17:51;;;;;;;11.20;9.30;;;;;;;30.97;39.05;95834.00;4989038;28;20064;-67
2021/08/12 07:20:17;;;;;;;8.05;7.35;;;;;;;30.95;37.77;95841.09;4989336;28;20050;-67
2021/08/12 07:22:42;;;;;;;12.23;8.18;;;;;;;31.09;37.82;95842.81;4989367;28;20122;-67
2021/08/12 07:25:08;;;;;;;8.13;7.40;;;;;;;31.17;38.25;95841.47;4972081;28;20029;-66
2021/08/12 07:27:33;;;;;;;9.13;7.68;;;;;;;31.18;37.90;95849.31;4965651;28;20030;-66
2021/08/12 07:29:59;;;;;;;7.85;7.22;;;;;;;31.04;37.72;95836.59;4989154;28;20125;-66
2021/08/12 07:32:25;;;;;;;8.20;7.35;;;;;;;30.75;38.40;95838.31;4988999;28;20047;-67
2021/08/12 07:34:50;;;;;;;8.00;7.28;;;;;;;29.69;40.23;95841.41;4971394;28;20457;-67
2021/08/12 07:37:16;;;;;;;7.28;6.68;;;;;;;30.47;39.07;95820.31;4988846;28;20397;-66
2021/08/12 07:39:41;;;;;;;12.40;7.35;;;;;;;30.74;38.53;95832.03;4990852;28;20461;-67
2021/08/12 07:42:06;;;;;;;8.75;6.85;;;;;;;30.97;38.57;95828.50;4988643;28;20038;-67
2021/08/12 07:44:32;;;;;;;8.18;7.40;;;;;;;30.76;37.96;95834.34;4971478;28;20130;-66
2021/08/12 07:46:57;;;;;;;7.32;6.72;;;;;;;30.85;38.15;95840.09;4988740;28;20057;-67
2021/08/12 07:49:23;;;;;;;9.38;6.75;;;;;;;31.20;37.93;95843.41;4987836;28;20129;-66
2021/08/12 07:51:48;;;;;;;8.10;7.32;;;;;;;31.18;37.44;95848.53;4989688;28;20058;-66
2021/08/12 07:54:14;;;;;;;8.43;6.90;;;;;;;30.76;37.18;95839.84;4989270;28;20031;-66
2021/08/12 07:56:39;;;;;;;7.75;7.15;;;;;;;30.34;38.26;95847.56;4987905;28;20043;-67
2021/08/12 07:59:05;;;;;;;7.88;6.68;;;;;;;29.75;39.24;95832.31;4988543;28;20062;-67
2021/08/12 08:01:30;;;;;;;7.88;6.55;;;;;;;30.36;38.74;95833.44;4988688;28;20117;-67
2021/08/12 08:03:58;;;;;;;7.72;7.10;;;;;;;29.72;40.02;95846.81;4990695;28;20436;-67
2021/08/12 08:06:24;;;;;;;8.40;7.22;;;;;;;31.24;37.76;95844.09;4988435;28;20074;-66
2021/08/12 08:08:49;;;;;;;9.30;6.70;;;;;;;32.21;36.11;95845.69;4988882;28;20039;-66
2021/08/12 08:11:17;;;;;;;8.50;7.65;;;;;;;31.75;35.36;95836.44;4971483;28;20053;-67
2021/08/12 08:13:42;;;;;;;11.02;7.20;;;;;;;31.60;35.62;95837.94;4987986;28;20077;-67
2021/08/12 08:16:08;;;;;;;7.65;6.95;;;;;;;30.80;36.94;95846.06;4988248;28;20554;-67
2021/08/12 08:18:33;;;;;;;8.30;7.18;;;;;;;31.04;36.68;95838.59;4990663;28;20030;-67
2021/08/12 08:20:59;;;;;;;10.98;6.60;;;;;;;31.72;36.26;95845.53;4988843;28;20401;-68
2021/08/12 08:23:24;;;;;;;7.28;6.57;;;;;;;31.99;36.41;95845.38;4988818;28;20034;-68
2021/08/12 08:25:49;;;;;;;8.35;6.68;;;;;;;32.06;35.55;95853.50;4988418;28;20046;-68
2021/08/12 08:28:15;;;;;;;11.48;6.97;;;;;;;31.92;36.32;95826.28;4988024;28;20156;-68
2021/08/12 08:30:40;;;;;;;9.30;6.97;;;;;;;31.89;36.37;95838.13;4990635;28;20031;-68
2021/08/12 08:33:06;;;;;;;9.65;6.78;;;;;;;32.03;35.98;95846.84;4988552;28;20109;-68
2021/08/12 08:35:32;;;;;;;8.13;7.10;;;;;;;32.08;35.68;95854.59;4988502;28;20193;-68
2021/08/12 08:37:59;;;;;;;7.93;7.15;;;;;;;32.24;35.84;95844.81;4988284;28;20045;-68
2021/08/12 08:40:25;;;;;;;9.10;7.32;;;;;;;32.18;34.94;95844.56;4988298;28;20034;-68
2021/08/12 08:42:51;;;;;;;8.80;7.50;;;;;;;32.28;34.75;95853.78;4989946;28;20042;-68
2021/08/12 08:45:21;;;;;;;7.95;7.15;;;;;;;32.41;34.55;95853.91;4970647;28;20047;-68
2021/08/12 08:47:49;;;;;;;7.20;6.60;;;;;;;32.49;34.25;95847.03;4974113;28;20133;-68
2021/08/12 08:50:17;;;;;;;6.75;6.25;;;;;;;32.44;34.37;95845.56;4992208;28;20042;-67
2021/08/12 08:52:45;;;;;;;7.22;6.47;;;;;;;32.44;34.50;95840.03;4992054;28;20494;-68
2021/08/12 08:55:17;;;;;;;8.25;7.55;;;;;;;32.34;34.34;95832.78;4992201;28;20030;-67
2021/08/12 08:57:43;;;;;;;;;;;;;;;32.40;34.17;95839.38;4993578;28;20464;-68
2021/08/12 09:00:08;;;;;;;8.05;7.32;;;;;;;31.76;34.81;95827.00;4991494;28;19952;-67
2021/08/12 09:02:34;;;;;;;7.50;6.80;;;;;;;32.30;34.96;95840.38;4992100;28;20030;-67
2021/08/12 09:04:59;;;;;;;8.05;7.25;;;;;;;32.30;34.35;95830.13;4992228;28;20574;-68
2021/08/12 09:07:26;;;;;;;10.85;7.05;;;;;;;32.17;35.32;95833.97;4973857;28;20594;-67
2021/08/12 09:09:51;;;;;;;7.30;6.45;;;;;;;32.25;34.47;95829.88;4993581;28;20022;-67
2021/08/12 09:12:17;;;;;;;7.30;6.60;;;;;;;32.18;35.37;95824.50;4991316;28;20129;-68
2021/08/12 09:14:42;;;;;;;7.60;7.00;;;;;;;32.34;34.83;95822.53;4991577;28;20539;-69
2021/08/12 09:17:23;;;;;;;7.78;7.07;;;;;;;32.18;35.02;95827.28;4991332;28;20051;-67
2021/08/12 09:20:15;;;;;;;7.70;7.00;;;;;;;32.33;35.26;95815.50;4991395;28;20050;-68
2021/08/12 09:22:49;;;;;;;7.30;6.78;;;;;;;32.13;34.99;95822.28;4991252;28;20034;-67
2021/08/12 09:25:16;;;;;;;7.40;6.80;;;;;;;31.74;35.96;95812.91;4991147;28;20025;-67
2021/08/12 09:27:41;;;;;;;12.73;7.20;;;;;;;30.83;35.77;95812.28;4992217;28;20098;-68
2021/08/12 09:30:13;;;;;;;7.90;7.10;;;;;;;32.20;34.39;95813.88;4991301;28;20054;-68
2021/08/12 09:32:52;;;;;;;7.20;6.53;;;;;;;31.88;35.32;95809.06;4991701;28;20050;-68
2021/08/12 09:35:25;;;;;;;7.70;7.10;;;;;;;32.06;34.87;95801.19;4991571;28;20374;-69
2021/08/12 09:37:51;;;;;;;7.53;6.75;;;;;;;31.40;34.91;95811.22;4973598;28;20058;-68
2021/08/12 09:40:24;;;;;;;8.27;7.50;;;;;;;31.74;35.30;95807.41;4991195;28;20040;-68
2021/08/12 09:42:59;;;;;;;8.00;7.20;;;;;;;32.66;34.41;95810.03;4975014;28;20035;-68
2021/08/12 09:45:25;;;;;;;7.40;6.90;;;;;;;32.88;32.46;95804.72;4990935;28;20038;-68
2021/08/12 09:47:52;;;;;;;10.75;7.88;;;;;;;33.34;32.01;95809.03;4973108;28;20038;-68
2021/08/12 09:50:35;;;;;;;7.90;7.20;;;;;;;33.28;32.26;95810.78;4991164;28;20039;-68
2021/08/12 09:53:00;;;;;;;8.38;7.05;;;;;;;33.98;31.47;95805.66;4991440;28;20134;-69
2021/08/12 09:55:26;;;;;;;8.25;7.45;;;;;;;33.77;31.34;95809.78;4973912;28;20129;-72
2021/08/12 09:58:11;;;;;;;7.57;6.88;;;;;;;34.02;29.88;95814.59;4991726;28;20076;-72
2021/08/12 10:00:48;;;;;;;6.93;6.43;;;;;;;34.22;30.74;95819.91;4991178;28;20046;-74
2021/08/12 10:03:32;;;;;;;8.85;6.75;;;;;;;34.44;30.15;95820.75;4990827;28;20042;-73
2021/08/12 10:05:59;;;;;;;7.78;6.97;;;;;;;33.94;31.17;95816.81;4990612;28;20046;-73
2021/08/12 10:08:29;;;;;;;7.75;7.03;;;;;;;33.69;31.20;95820.28;4973479;28;20134;-72
2021/08/12 10:10:56;;;;;;;7.85;7.25;;;;;;;33.77;30.42;95805.06;4990753;28;20031;-72
2021/08/12 10:13:21;;;;;;;7.32;6.63;;;;;;;33.01;31.87;95788.28;4971539;28;20027;-72
2021/08/12 10:15:51;;;;;;;7.82;7.00;;;;;;;33.37;31.43;95813.69;4981162;28;20476;-72
2021/08/12 10:18:21;;;;;;;7.55;6.88;;;;;;;33.45;32.65;95802.47;4990667;28;20519;-72
2021/08/12 10:20:48;;;;;;;8.10;7.40;;;;;;;33.48;31.52;95816.16;4990529;28;20054;-72
2021/08/12 10:23:15;;;;;;;8.02;7.28;;;;;;;33.42;31.65;95782.03;4990809;28;20049;-72
2021/08/12 10:25:42;;;;;;;7.45;6.95;;;;;;;33.36;31.46;95792.81;4990207;28;20038;-73
2021/08/12 10:28:09;;;;;;;7.50;6.78;;;;;;;33.23;31.36;95791.25;4990159;28;20038;-75
2021/08/12 10:30:35;;;;;;;8.88;8.15;;;;;;;32.86;32.28;95815.41;4993970;28;20596;-78
2021/08/12 10:33:06;;;;;;;8.07;7.47;;;;;;;33.26;31.68;95793.88;4991883;28;20054;-78
2021/08/12 10:35:34;;;;;;;7.60;7.00;;;;;;;33.33;30.75;95788.19;4991327;28;20034;-77
2021/08/12 10:38:00;;;;;;;13.60;7.85;;;;;;;33.69;31.17;95800.97;4974021;28;20039;-78
2021/08/12 10:40:36;;;;;;;7.70;6.97;;;;;;;33.85;30.57;95798.13;4974279;28;20594;-80
2021/08/12 10:43:03;;;;;;;10.73;7.18;;;;;;;33.83;30.81;95789.50;4993006;28;20109;-76
2021/08/12 10:45:29;;;;;;;7.57;6.97;;;;;;;33.89;29.82;95786.97;4991721;28;20101;-79
2021/08/12 10:47:57;;;;;;;7.93;7.18;;;;;;;33.98;29.87;95800.91;4991542;28;20038;-79
2021/08/12 10:50:23;;;;;;;7.70;7.03;;;;;;;32.89;30.92;95800.00;4974334;28;20485;-79
2021/08/12 10:53:10;;;;;;;8.05;7.25;;;;;;;33.12;30.91;95799.81;4992009;28;20044;-79
2021/08/12 10:55:38;;;;;;;8.27;6.57;;;;;;;33.59;31.11;95794.56;4991524;28;20054;-78
2021/08/12 10:58:22;;;;;;;7.15;6.28;;;;;;;33.62;30.86;95799.19;4986779;28;20031;-79
2021/08/12 11:01:08;;;;;;;6.80;6.30;;;;;;;34.03;29.97;95788.53;4973403;28;20062;-80
2021/08/12 11:03:34;;;;;;;7.38;6.55;;;;;;;33.55;29.35;95799.41;4972483;28;20055;-79
2021/08/12 11:06:04;;;;;;;7.40;6.40;;;;;;;34.06;29.90;95793.97;4971838;28;20034;-78
2021/08/12 11:08:48;;;;;;;7.20;6.60;;;;;;;33.83;28.76;95789.50;4971835;28;20031;-80
2021/08/12 11:11:34;;;;;;;8.25;6.70;;;;;;;33.34;29.76;95780.69;4972192;28;20505;-79
2021/08/12 11:14:00;;;;;;;6.55;6.10;;;;;;;33.86;29.03;95790.59;4977967;28;20066;-78
2021/08/12 11:16:49;;;;;;;7.47;6.78;;;;;;;32.12;30.80;95769.22;4973955;28;20066;-79
2021/08/12 11:19:20;;;;;;;6.57;5.97;;;;;;;33.07;29.27;95779.06;4991369;28;20022;-80
2021/08/12 11:21:46;;;;;;;7.45;6.82;;;;;;;33.70;28.84;95782.44;4992472;28;20097;-80
2021/08/12 11:24:31;;;;;;;6.80;6.20;;;;;;;33.75;28.75;95770.84;4991177;28;20042;-79
2021/08/12 11:26:57;;;;;;;6.72;6.10;;;;;;;33.98;29.56;95781.56;4990946;28;20037;-79
2021/08/12 11:29:28;;;;;;;7.40;6.78;;;;;;;34.44;29.58;95787.63;4990740;28;20138;-79